Omura, Japan
Current Conditions -  °F | °C
As of 3:00 PM on Sunday 21 Dec 2014 (Local Time) from RJFU Reporting Station
Broken Clouds Broken Clouds  
Wind Chill: 40°   Ceiling: 4000
Heat Index: 45°   Visibility: 6mi
Dew Point: 30°   Wind: 9mph
Humidity: 57%   Direction: 320°NW
Pressure: 30.09"   Gusts: NA
Location:  32.91°N, 129.95°E
Report Text: RJFU 210600Z 32008KT 9999 FEW030 BKN040 BKN060 07/M01 Q1019
Loading
Personal Weather Stations






























Interactive Weather Map New forecast layout! Learn more

10-Day Weather Forecast

Advertisements
Track Severe Weather on mobile